Terminal Aerodrome Forecast
Issued by NWS

Home | Current Version | Previous Version | Text Only | Print | Product List | Glossary On
Versions: 1 2 3 4 5 6 7 8 9 10 11
080
FTUS45 KRIW 222324
TAFBPI
TAF
KBPI 222324Z 2300/2324 21010KT P6SM SCT200
     FM230100 VRB06KT P6SM SCT090 BKN200
     FM232200 27011G16KT P6SM VCTS SCT035 BKN050CB=

USA.gov is the U.S. government's official web portal to all federal, state and local government web resources and services.